sensor_id;sensor_type;location;lat;lon;timestamp;P1;durP1;ratioP1;P2;durP2;ratioP2
19179;SDS011;9722;48.754;8.868;2023-01-01T00:02:05;16.27;;;14.67;;
19179;SDS011;9722;48.754;8.868;2023-01-01T00:05:26;15.07;;;13.47;;
19179;SDS011;9722;48.754;8.868;2023-01-01T00:08:46;18.17;;;16.20;;
19179;SDS011;9722;48.754;8.868;2023-01-01T00:12:07;26.03;;;20.17;;
19179;SDS011;9722;48.754;8.868;2023-01-01T00:15:28;26.27;;;21.40;;
19179;SDS011;9722;48.754;8.868;2023-01-01T00:18:48;33.30;;;24.20;;
19179;SDS011;9722;48.754;8.868;2023-01-01T00:22:09;35.23;;;27.00;;
19179;SDS011;9722;48.754;8.868;2023-01-01T00:25:29;36.27;;;30.13;;
19179;SDS011;9722;48.754;8.868;2023-01-01T00:28:51;41.87;;;30.67;;
19179;SDS011;9722;48.754;8.868;2023-01-01T00:32:12;40.07;;;31.43;;
19179;SDS011;9722;48.754;8.868;2023-01-01T00:35:32;39.07;;;31.83;;
19179;SDS011;9722;48.754;8.868;2023-01-01T00:38:53;48.57;;;34.53;;
19179;SDS011;9722;48.754;8.868;2023-01-01T00:42:13;51.67;;;34.87;;
19179;SDS011;9722;48.754;8.868;2023-01-01T00:45:34;48.10;;;36.97;;
19179;SDS011;9722;48.754;8.868;2023-01-01T00:48:54;43.97;;;31.00;;
19179;SDS011;9722;48.754;8.868;2023-01-01T00:52:15;39.13;;;32.73;;
19179;SDS011;9722;48.754;8.868;2023-01-01T00:55:37;41.60;;;30.60;;
19179;SDS011;9722;48.754;8.868;2023-01-01T00:58:58;43.40;;;30.67;;
19179;SDS011;9722;48.754;8.868;2023-01-01T01:02:19;36.13;;;28.80;;
19179;SDS011;9722;48.754;8.868;2023-01-01T01:05:39;41.87;;;29.43;;
19179;SDS011;9722;48.754;8.868;2023-01-01T01:09:00;36.00;;;26.00;;
19179;SDS011;9722;48.754;8.868;2023-01-01T01:12:20;35.13;;;27.37;;
19179;SDS011;9722;48.754;8.868;2023-01-01T01:15:41;30.13;;;24.23;;
19179;SDS011;9722;48.754;8.868;2023-01-01T01:19:02;27.00;;;22.63;;
19179;SDS011;9722;48.754;8.868;2023-01-01T01:22:24;28.73;;;22.03;;
19179;SDS011;9722;48.754;8.868;2023-01-01T01:25:45;26.27;;;21.60;;
19179;SDS011;9722;48.754;8.868;2023-01-01T01:29:06;30.70;;;21.60;;
19179;SDS011;9722;48.754;8.868;2023-01-01T01:32:27;22.27;;;18.50;;
19179;SDS011;9722;48.754;8.868;2023-01-01T01:35:50;21.07;;;18.87;;
19179;SDS011;9722;48.754;8.868;2023-01-01T01:39:11;21.00;;;17.90;;
19179;SDS011;9722;48.754;8.868;2023-01-01T01:42:31;25.43;;;18.57;;
19179;SDS011;9722;48.754;8.868;2023-01-01T01:45:53;18.70;;;16.37;;
19179;SDS011;9722;48.754;8.868;2023-01-01T01:49:25;21.30;;;17.67;;
19179;SDS011;9722;48.754;8.868;2023-01-01T01:56:25;18.77;;;16.77;;
19179;SDS011;9722;48.754;8.868;2023-01-01T01:59:54;19.43;;;16.17;;
19179;SDS011;9722;48.754;8.868;2023-01-01T02:03:26;19.63;;;17.07;;
19179;SDS011;9722;48.754;8.868;2023-01-01T02:06:54;20.77;;;16.87;;
19179;SDS011;9722;48.754;8.868;2023-01-01T02:10:15;20.17;;;17.13;;
19179;SDS011;9722;48.754;8.868;2023-01-01T02:13:36;18.57;;;16.70;;
19179;SDS011;9722;48.754;8.868;2023-01-01T02:16:59;21.07;;;16.57;;
19179;SDS011;9722;48.754;8.868;2023-01-01T02:20:38;19.60;;;16.57;;
19179;SDS011;9722;48.754;8.868;2023-01-01T02:24:22;23.47;;;18.70;;
19179;SDS011;9722;48.754;8.868;2023-01-01T02:31:58;20.93;;;16.07;;
19179;SDS011;9722;48.754;8.868;2023-01-01T02:35:24;19.33;;;16.73;;
19179;SDS011;9722;48.754;8.868;2023-01-01T02:38:55;15.73;;;14.20;;
19179;SDS011;9722;48.754;8.868;2023-01-01T02:42:19;19.43;;;15.27;;
19179;SDS011;9722;48.754;8.868;2023-01-01T02:45:42;16.50;;;14.80;;
19179;SDS011;9722;48.754;8.868;2023-01-01T02:49:03;21.13;;;15.80;;
19179;SDS011;9722;48.754;8.868;2023-01-01T02:53:26;17.93;;;16.13;;
19179;SDS011;9722;48.754;8.868;2023-01-01T02:59:57;21.53;;;18.27;;
19179;SDS011;9722;48.754;8.868;2023-01-01T03:03:44;17.90;;;14.70;;
19179;SDS011;9722;48.754;8.868;2023-01-01T03:10:53;16.40;;;14.67;;
19179;SDS011;9722;48.754;8.868;2023-01-01T03:14:39;16.20;;;14.13;;
19179;SDS011;9722;48.754;8.868;2023-01-01T03:21:57;12.83;;;11.23;;
19179;SDS011;9722;48.754;8.868;2023-01-01T03:25:22;10.70;;;8.77;;
19179;SDS011;9722;48.754;8.868;2023-01-01T03:28:47;9.87;;;8.10;;
19179;SDS011;9722;48.754;8.868;2023-01-01T03:32:15;9.10;;;6.70;;
19179;SDS011;9722;48.754;8.868;2023-01-01T03:35:47;6.40;;;5.80;;
19179;SDS011;9722;48.754;8.868;2023-01-01T03:42:41;10.80;;;9.67;;
19179;SDS011;9722;48.754;8.868;2023-01-01T03:46:05;13.17;;;9.00;;
19179;SDS011;9722;48.754;8.868;2023-01-01T03:49:27;7.33;;;6.50;;
19179;SDS011;9722;48.754;8.868;2023-01-01T03:52:52;7.03;;;6.33;;
19179;SDS011;9722;48.754;8.868;2023-01-01T03:56:19;7.20;;;5.80;;
19179;SDS011;9722;48.754;8.868;2023-01-01T04:00:00;5.30;;;4.80;;
19179;SDS011;9722;48.754;8.868;2023-01-01T04:03:30;5.53;;;4.90;;
19179;SDS011;9722;48.754;8.868;2023-01-01T04:06:53;7.70;;;5.97;;
19179;SDS011;9722;48.754;8.868;2023-01-01T04:10:14;4.17;;;3.37;;
19179;SDS011;9722;48.754;8.868;2023-01-01T04:13:45;4.50;;;3.50;;
19179;SDS011;9722;48.754;8.868;2023-01-01T04:17:07;2.93;;;2.20;;
19179;SDS011;9722;48.754;8.868;2023-01-01T04:20:29;3.90;;;1.90;;
19179;SDS011;9722;48.754;8.868;2023-01-01T04:23:50;3.93;;;2.10;;
19179;SDS011;9722;48.754;8.868;2023-01-01T04:27:10;2.93;;;1.97;;
19179;SDS011;9722;48.754;8.868;2023-01-01T04:30:31;3.30;;;2.97;;
19179;SDS011;9722;48.754;8.868;2023-01-01T04:33:54;5.33;;;4.10;;
19179;SDS011;9722;48.754;8.868;2023-01-01T04:37:15;3.67;;;3.03;;
19179;SDS011;9722;48.754;8.868;2023-01-01T04:40:36;3.73;;;2.57;;
19179;SDS011;9722;48.754;8.868;2023-01-01T04:43:56;7.27;;;5.13;;
19179;SDS011;9722;48.754;8.868;2023-01-01T04:47:17;5.23;;;4.17;;
19179;SDS011;9722;48.754;8.868;2023-01-01T04:50:37;7.43;;;5.27;;
19179;SDS011;9722;48.754;8.868;2023-01-01T04:53:58;6.13;;;5.17;;
19179;SDS011;9722;48.754;8.868;2023-01-01T04:57:19;4.83;;;3.37;;
19179;SDS011;9722;48.754;8.868;2023-01-01T05:00:39;9.23;;;7.27;;
19179;SDS011;9722;48.754;8.868;2023-01-01T05:04:00;6.10;;;4.13;;
19179;SDS011;9722;48.754;8.868;2023-01-01T05:07:21;11.17;;;8.63;;
19179;SDS011;9722;48.754;8.868;2023-01-01T05:10:41;6.33;;;5.00;;
19179;SDS011;9722;48.754;8.868;2023-01-01T05:14:02;3.83;;;2.70;;
19179;SDS011;9722;48.754;8.868;2023-01-01T05:17:24;6.90;;;4.83;;
19179;SDS011;9722;48.754;8.868;2023-01-01T05:20:44;8.13;;;5.47;;
19179;SDS011;9722;48.754;8.868;2023-01-01T05:24:06;14.17;;;9.77;;
19179;SDS011;9722;48.754;8.868;2023-01-01T05:27:28;9.00;;;7.53;;
19179;SDS011;9722;48.754;8.868;2023-01-01T05:30:49;5.53;;;4.63;;
19179;SDS011;9722;48.754;8.868;2023-01-01T05:34:10;3.33;;;2.30;;
19179;SDS011;9722;48.754;8.868;2023-01-01T05:37:31;3.47;;;2.60;;
19179;SDS011;9722;48.754;8.868;2023-01-01T05:40:52;8.10;;;6.30;;
19179;SDS011;9722;48.754;8.868;2023-01-01T05:44:12;7.50;;;4.47;;
19179;SDS011;9722;48.754;8.868;2023-01-01T05:47:35;9.77;;;6.13;;
19179;SDS011;9722;48.754;8.868;2023-01-01T05:51:06;4.57;;;3.27;;
19179;SDS011;9722;48.754;8.868;2023-01-01T05:54:37;4.37;;;3.20;;
19179;SDS011;9722;48.754;8.868;2023-01-01T05:57:57;7.63;;;4.20;;
19179;SDS011;9722;48.754;8.868;2023-01-01T06:01:20;17.03;;;10.23;;
19179;SDS011;9722;48.754;8.868;2023-01-01T06:04:42;8.43;;;5.33;;
19179;SDS011;9722;48.754;8.868;2023-01-01T06:08:02;11.07;;;8.13;;
19179;SDS011;9722;48.754;8.868;2023-01-01T06:11:23;22.00;;;14.43;;
19179;SDS011;9722;48.754;8.868;2023-01-01T06:14:44;6.47;;;4.97;;
19179;SDS011;9722;48.754;8.868;2023-01-01T06:18:04;4.40;;;2.23;;
19179;SDS011;9722;48.754;8.868;2023-01-01T06:21:25;2.70;;;1.83;;
19179;SDS011;9722;48.754;8.868;2023-01-01T06:24:47;2.60;;;1.47;;
19179;SDS011;9722;48.754;8.868;2023-01-01T06:28:07;1.53;;;1.20;;
19179;SDS011;9722;48.754;8.868;2023-01-01T06:31:28;3.77;;;2.70;;
19179;SDS011;9722;48.754;8.868;2023-01-01T06:34:49;3.23;;;2.93;;
19179;SDS011;9722;48.754;8.868;2023-01-01T06:38:09;2.90;;;2.50;;
19179;SDS011;9722;48.754;8.868;2023-01-01T06:41:30;3.27;;;2.37;;
19179;SDS011;9722;48.754;8.868;2023-01-01T06:44:50;5.70;;;3.77;;
19179;SDS011;9722;48.754;8.868;2023-01-01T06:48:11;3.30;;;2.70;;
19179;SDS011;9722;48.754;8.868;2023-01-01T06:51:39;5.23;;;2.23;;
19179;SDS011;9722;48.754;8.868;2023-01-01T06:55:00;2.53;;;2.33;;
19179;SDS011;9722;48.754;8.868;2023-01-01T06:58:21;3.23;;;2.87;;
19179;SDS011;9722;48.754;8.868;2023-01-01T07:01:41;5.23;;;4.00;;
19179;SDS011;9722;48.754;8.868;2023-01-01T07:05:02;5.80;;;3.90;;
19179;SDS011;9722;48.754;8.868;2023-01-01T07:08:23;5.03;;;4.37;;
19179;SDS011;9722;48.754;8.868;2023-01-01T07:11:43;4.53;;;4.13;;
19179;SDS011;9722;48.754;8.868;2023-01-01T07:15:04;5.63;;;4.60;;
19179;SDS011;9722;48.754;8.868;2023-01-01T07:18:24;6.93;;;3.43;;
19179;SDS011;9722;48.754;8.868;2023-01-01T07:21:50;7.43;;;4.57;;
19179;SDS011;9722;48.754;8.868;2023-01-01T07:25:13;6.97;;;5.00;;
19179;SDS011;9722;48.754;8.868;2023-01-01T07:28:35;5.10;;;3.67;;
19179;SDS011;9722;48.754;8.868;2023-01-01T07:31:55;3.07;;;2.67;;
19179;SDS011;9722;48.754;8.868;2023-01-01T07:35:16;3.13;;;2.50;;
19179;SDS011;9722;48.754;8.868;2023-01-01T07:38:36;3.57;;;2.33;;
19179;SDS011;9722;48.754;8.868;2023-01-01T07:41:57;3.03;;;2.73;;
19179;SDS011;9722;48.754;8.868;2023-01-01T07:45:17;3.87;;;2.57;;
19179;SDS011;9722;48.754;8.868;2023-01-01T07:48:38;2.07;;;1.97;;
19179;SDS011;9722;48.754;8.868;2023-01-01T07:51:58;2.40;;;2.20;;
19179;SDS011;9722;48.754;8.868;2023-01-01T07:55:19;3.53;;;2.33;;
19179;SDS011;9722;48.754;8.868;2023-01-01T07:58:40;3.63;;;2.50;;
19179;SDS011;9722;48.754;8.868;2023-01-01T08:02:00;3.50;;;2.37;;
19179;SDS011;9722;48.754;8.868;2023-01-01T08:05:21;2.73;;;2.47;;
19179;SDS011;9722;48.754;8.868;2023-01-01T08:08:42;4.73;;;2.30;;
19179;SDS011;9722;48.754;8.868;2023-01-01T08:12:02;3.70;;;2.90;;
19179;SDS011;9722;48.754;8.868;2023-01-01T08:15:23;4.23;;;3.50;;
19179;SDS011;9722;48.754;8.868;2023-01-01T08:18:45;5.40;;;4.13;;
19179;SDS011;9722;48.754;8.868;2023-01-01T08:22:05;8.30;;;5.03;;
19179;SDS011;9722;48.754;8.868;2023-01-01T08:25:26;4.30;;;3.47;;
19179;SDS011;9722;48.754;8.868;2023-01-01T08:28:46;4.47;;;3.40;;
19179;SDS011;9722;48.754;8.868;2023-01-01T08:32:07;4.97;;;4.00;;
19179;SDS011;9722;48.754;8.868;2023-01-01T08:35:28;3.50;;;3.20;;
19179;SDS011;9722;48.754;8.868;2023-01-01T08:38:48;4.87;;;3.20;;
19179;SDS011;9722;48.754;8.868;2023-01-01T08:42:09;3.20;;;2.90;;
19179;SDS011;9722;48.754;8.868;2023-01-01T08:45:30;6.57;;;3.37;;
19179;SDS011;9722;48.754;8.868;2023-01-01T08:48:50;3.97;;;2.60;;
19179;SDS011;9722;48.754;8.868;2023-01-01T08:52:11;2.80;;;2.23;;
19179;SDS011;9722;48.754;8.868;2023-01-01T08:55:32;4.57;;;2.97;;
19179;SDS011;9722;48.754;8.868;2023-01-01T08:58:52;3.67;;;2.87;;
19179;SDS011;9722;48.754;8.868;2023-01-01T09:02:13;2.40;;;2.20;;
19179;SDS011;9722;48.754;8.868;2023-01-01T09:05:33;4.43;;;2.30;;
19179;SDS011;9722;48.754;8.868;2023-01-01T09:08:54;3.67;;;2.63;;
19179;SDS011;9722;48.754;8.868;2023-01-01T09:12:14;3.57;;;2.93;;
19179;SDS011;9722;48.754;8.868;2023-01-01T09:15:35;2.53;;;2.33;;
19179;SDS011;9722;48.754;8.868;2023-01-01T09:18:56;2.60;;;2.33;;
19179;SDS011;9722;48.754;8.868;2023-01-01T09:22:16;3.93;;;2.50;;
19179;SDS011;9722;48.754;8.868;2023-01-01T09:25:37;3.47;;;2.90;;
19179;SDS011;9722;48.754;8.868;2023-01-01T09:28:58;3.27;;;2.97;;
19179;SDS011;9722;48.754;8.868;2023-01-01T09:32:18;3.43;;;2.93;;
19179;SDS011;9722;48.754;8.868;2023-01-01T09:35:39;3.50;;;2.83;;
19179;SDS011;9722;48.754;8.868;2023-01-01T09:39:03;3.03;;;2.80;;
19179;SDS011;9722;48.754;8.868;2023-01-01T09:46:26;4.60;;;3.13;;
19179;SDS011;9722;48.754;8.868;2023-01-01T09:49:43;4.07;;;3.67;;
19179;SDS011;9722;48.754;8.868;2023-01-01T09:53:09;3.00;;;2.70;;
19179;SDS011;9722;48.754;8.868;2023-01-01T09:56:40;2.63;;;2.40;;
19179;SDS011;9722;48.754;8.868;2023-01-01T10:00:14;3.20;;;3.00;;
19179;SDS011;9722;48.754;8.868;2023-01-01T10:03:40;2.93;;;2.73;;
19179;SDS011;9722;48.754;8.868;2023-01-01T10:07:16;3.50;;;3.20;;
19179;SDS011;9722;48.754;8.868;2023-01-01T10:10:39;3.23;;;2.97;;
19179;SDS011;9722;48.754;8.868;2023-01-01T10:14:06;3.20;;;2.90;;
19179;SDS011;9722;48.754;8.868;2023-01-01T10:17:39;3.53;;;3.10;;
19179;SDS011;9722;48.754;8.868;2023-01-01T10:21:11;3.33;;;3.03;;
19179;SDS011;9722;48.754;8.868;2023-01-01T10:24:44;3.17;;;2.87;;
19179;SDS011;9722;48.754;8.868;2023-01-01T10:28:22;3.13;;;2.87;;
19179;SDS011;9722;48.754;8.868;2023-01-01T10:31:48;5.23;;;3.27;;
19179;SDS011;9722;48.754;8.868;2023-01-01T10:35:12;3.30;;;3.00;;
19179;SDS011;9722;48.754;8.868;2023-01-01T10:38:34;3.20;;;2.90;;
19179;SDS011;9722;48.754;8.868;2023-01-01T10:41:56;3.53;;;3.20;;
19179;SDS011;9722;48.754;8.868;2023-01-01T10:45:18;3.43;;;3.13;;
19179;SDS011;9722;48.754;8.868;2023-01-01T10:49:07;3.10;;;2.80;;
19179;SDS011;9722;48.754;8.868;2023-01-01T10:52:35;3.60;;;2.73;;
19179;SDS011;9722;48.754;8.868;2023-01-01T10:56:01;3.53;;;3.07;;
19179;SDS011;9722;48.754;8.868;2023-01-01T10:59:32;3.53;;;3.23;;
19179;SDS011;9722;48.754;8.868;2023-01-01T11:03:11;3.40;;;3.10;;
19179;SDS011;9722;48.754;8.868;2023-01-01T11:06:43;3.20;;;2.77;;
19179;SDS011;9722;48.754;8.868;2023-01-01T11:10:05;5.70;;;2.90;;
19179;SDS011;9722;48.754;8.868;2023-01-01T11:13:34;3.50;;;3.20;;
19179;SDS011;9722;48.754;8.868;2023-01-01T11:16:54;3.90;;;3.00;;
19179;SDS011;9722;48.754;8.868;2023-01-01T11:20:17;3.13;;;2.87;;
19179;SDS011;9722;48.754;8.868;2023-01-01T11:23:39;4.13;;;2.60;;
19179;SDS011;9722;48.754;8.868;2023-01-01T11:30:37;3.40;;;3.10;;
19179;SDS011;9722;48.754;8.868;2023-01-01T11:33:58;2.73;;;2.17;;
19179;SDS011;9722;48.754;8.868;2023-01-01T11:37:24;2.50;;;2.30;;
19179;SDS011;9722;48.754;8.868;2023-01-01T11:40:48;2.70;;;2.40;;
19179;SDS011;9722;48.754;8.868;2023-01-01T11:44:39;4.90;;;3.87;;
19179;SDS011;9722;48.754;8.868;2023-01-01T11:48:04;3.73;;;3.13;;
19179;SDS011;9722;48.754;8.868;2023-01-01T11:51:35;4.23;;;2.60;;
19179;SDS011;9722;48.754;8.868;2023-01-01T11:55:00;4.00;;;2.27;;
19179;SDS011;9722;48.754;8.868;2023-01-01T12:01:57;3.17;;;2.10;;
19179;SDS011;9722;48.754;8.868;2023-01-01T12:09:09;2.93;;;2.10;;
19179;SDS011;9722;48.754;8.868;2023-01-01T12:12:33;3.07;;;2.30;;
19179;SDS011;9722;48.754;8.868;2023-01-01T12:16:09;4.90;;;2.40;;
19179;SDS011;9722;48.754;8.868;2023-01-01T12:19:35;3.10;;;2.20;;
19179;SDS011;9722;48.754;8.868;2023-01-01T12:23:07;3.13;;;2.07;;
19179;SDS011;9722;48.754;8.868;2023-01-01T12:30:13;4.20;;;1.97;;
19179;SDS011;9722;48.754;8.868;2023-01-01T12:56:02;2.87;;;2.00;;
19179;SDS011;9722;48.754;8.868;2023-01-01T12:59:33;5.00;;;1.80;;
19179;SDS011;9722;48.754;8.868;2023-01-01T13:02:59;2.77;;;2.03;;
19179;SDS011;9722;48.754;8.868;2023-01-01T13:06:37;3.53;;;2.10;;
19179;SDS011;9722;48.754;8.868;2023-01-01T13:10:02;2.43;;;2.23;;
19179;SDS011;9722;48.754;8.868;2023-01-01T13:13:35;3.77;;;2.77;;
19179;SDS011;9722;48.754;8.868;2023-01-01T13:16:56;3.00;;;2.70;;
19179;SDS011;9722;48.754;8.868;2023-01-01T13:20:21;2.37;;;2.10;;
19179;SDS011;9722;48.754;8.868;2023-01-01T13:23:43;2.33;;;2.13;;
19179;SDS011;9722;48.754;8.868;2023-01-01T13:27:05;4.27;;;2.30;;
19179;SDS011;9722;48.754;8.868;2023-01-01T13:37:57;6.87;;;2.30;;
19179;SDS011;9722;48.754;8.868;2023-01-01T13:41:31;2.60;;;2.40;;
19179;SDS011;9722;48.754;8.868;2023-01-01T13:44:58;2.40;;;2.20;;
19179;SDS011;9722;48.754;8.868;2023-01-01T14:03:20;3.33;;;2.10;;
19179;SDS011;9722;48.754;8.868;2023-01-01T14:06:43;4.03;;;1.83;;
19179;SDS011;9722;48.754;8.868;2023-01-01T14:13:47;1.73;;;1.63;;
19179;SDS011;9722;48.754;8.868;2023-01-01T14:17:08;2.47;;;2.00;;
19179;SDS011;9722;48.754;8.868;2023-01-01T14:20:36;3.40;;;1.87;;
19179;SDS011;9722;48.754;8.868;2023-01-01T14:24:04;2.90;;;2.00;;
19179;SDS011;9722;48.754;8.868;2023-01-01T14:27:27;3.60;;;2.30;;
19179;SDS011;9722;48.754;8.868;2023-01-01T14:30:48;3.80;;;1.87;;
19179;SDS011;9722;48.754;8.868;2023-01-01T14:37:45;3.10;;;2.80;;
19179;SDS011;9722;48.754;8.868;2023-01-01T14:41:07;4.53;;;3.40;;
19179;SDS011;9722;48.754;8.868;2023-01-01T14:44:38;3.40;;;2.50;;
19179;SDS011;9722;48.754;8.868;2023-01-01T14:48:01;3.37;;;1.80;;
19179;SDS011;9722;48.754;8.868;2023-01-01T14:51:24;3.13;;;1.70;;
19179;SDS011;9722;48.754;8.868;2023-01-01T14:54:48;6.57;;;3.47;;
19179;SDS011;9722;48.754;8.868;2023-01-01T14:58:11;4.23;;;2.40;;
19179;SDS011;9722;48.754;8.868;2023-01-01T15:01:36;2.60;;;1.90;;
19179;SDS011;9722;48.754;8.868;2023-01-01T15:05:08;5.23;;;2.70;;
19179;SDS011;9722;48.754;8.868;2023-01-01T15:08:49;4.13;;;1.90;;
19179;SDS011;9722;48.754;8.868;2023-01-01T15:12:11;2.30;;;1.77;;
19179;SDS011;9722;48.754;8.868;2023-01-01T15:15:37;2.53;;;2.10;;
19179;SDS011;9722;48.754;8.868;2023-01-01T15:19:00;4.07;;;3.30;;
19179;SDS011;9722;48.754;8.868;2023-01-01T15:22:36;4.00;;;3.07;;
19179;SDS011;9722;48.754;8.868;2023-01-01T15:25:59;3.40;;;2.53;;
19179;SDS011;9722;48.754;8.868;2023-01-01T15:29:43;4.47;;;2.97;;
19179;SDS011;9722;48.754;8.868;2023-01-01T15:33:07;5.03;;;2.27;;
19179;SDS011;9722;48.754;8.868;2023-01-01T15:36:33;4.30;;;3.40;;
19179;SDS011;9722;48.754;8.868;2023-01-01T15:39:58;7.37;;;6.47;;
19179;SDS011;9722;48.754;8.868;2023-01-01T15:43:21;10.10;;;8.90;;
19179;SDS011;9722;48.754;8.868;2023-01-01T15:46:47;23.77;;;20.97;;
19179;SDS011;9722;48.754;8.868;2023-01-01T15:53:46;5.23;;;3.40;;
19179;SDS011;9722;48.754;8.868;2023-01-01T15:57:15;10.10;;;9.30;;
19179;SDS011;9722;48.754;8.868;2023-01-01T16:00:41;11.97;;;11.13;;
19179;SDS011;9722;48.754;8.868;2023-01-01T16:04:18;9.13;;;8.03;;
19179;SDS011;9722;48.754;8.868;2023-01-01T16:07:42;5.53;;;4.93;;
19179;SDS011;9722;48.754;8.868;2023-01-01T16:11:04;4.13;;;2.90;;
19179;SDS011;9722;48.754;8.868;2023-01-01T16:14:25;6.60;;;3.57;;
19179;SDS011;9722;48.754;8.868;2023-01-01T16:17:45;7.17;;;5.80;;
19179;SDS011;9722;48.754;8.868;2023-01-01T16:21:06;7.07;;;5.07;;
19179;SDS011;9722;48.754;8.868;2023-01-01T16:24:26;8.03;;;3.73;;
19179;SDS011;9722;48.754;8.868;2023-01-01T16:27:47;5.10;;;3.67;;
19179;SDS011;9722;48.754;8.868;2023-01-01T16:31:41;3.80;;;3.17;;
19179;SDS011;9722;48.754;8.868;2023-01-01T16:34:55;3.67;;;3.37;;
19179;SDS011;9722;48.754;8.868;2023-01-01T16:38:15;4.30;;;3.77;;
19179;SDS011;9722;48.754;8.868;2023-01-01T16:41:38;4.10;;;3.70;;
19179;SDS011;9722;48.754;8.868;2023-01-01T16:45:00;3.57;;;3.27;;
19179;SDS011;9722;48.754;8.868;2023-01-01T16:48:21;5.57;;;3.00;;
19179;SDS011;9722;48.754;8.868;2023-01-01T16:51:41;4.27;;;2.73;;
19179;SDS011;9722;48.754;8.868;2023-01-01T16:55:02;3.90;;;2.70;;
19179;SDS011;9722;48.754;8.868;2023-01-01T16:58:23;3.87;;;3.13;;
19179;SDS011;9722;48.754;8.868;2023-01-01T17:01:43;8.97;;;3.40;;
19179;SDS011;9722;48.754;8.868;2023-01-01T17:05:04;4.47;;;3.80;;
19179;SDS011;9722;48.754;8.868;2023-01-01T17:08:25;7.70;;;4.10;;
19179;SDS011;9722;48.754;8.868;2023-01-01T17:11:45;6.43;;;4.70;;
19179;SDS011;9722;48.754;8.868;2023-01-01T17:15:06;8.80;;;7.97;;
19179;SDS011;9722;48.754;8.868;2023-01-01T17:18:26;11.03;;;7.93;;
19179;SDS011;9722;48.754;8.868;2023-01-01T17:21:47;20.97;;;14.37;;
19179;SDS011;9722;48.754;8.868;2023-01-01T17:25:08;13.97;;;11.67;;
19179;SDS011;9722;48.754;8.868;2023-01-01T17:28:29;17.00;;;10.87;;
19179;SDS011;9722;48.754;8.868;2023-01-01T17:31:49;6.13;;;5.53;;
19179;SDS011;9722;48.754;8.868;2023-01-01T17:35:10;5.33;;;4.10;;
19179;SDS011;9722;48.754;8.868;2023-01-01T17:38:31;5.17;;;4.50;;
19179;SDS011;9722;48.754;8.868;2023-01-01T17:41:51;7.00;;;6.40;;
19179;SDS011;9722;48.754;8.868;2023-01-01T17:45:12;13.80;;;9.97;;
19179;SDS011;9722;48.754;8.868;2023-01-01T17:48:33;12.33;;;11.00;;
19179;SDS011;9722;48.754;8.868;2023-01-01T17:51:53;10.23;;;7.40;;
19179;SDS011;9722;48.754;8.868;2023-01-01T17:55:14;6.67;;;5.83;;
19179;SDS011;9722;48.754;8.868;2023-01-01T17:58:34;5.53;;;4.43;;
19179;SDS011;9722;48.754;8.868;2023-01-01T18:01:55;5.13;;;3.87;;
19179;SDS011;9722;48.754;8.868;2023-01-01T18:05:15;5.00;;;3.20;;
19179;SDS011;9722;48.754;8.868;2023-01-01T18:08:36;4.00;;;3.60;;
19179;SDS011;9722;48.754;8.868;2023-01-01T18:11:56;3.30;;;3.00;;
19179;SDS011;9722;48.754;8.868;2023-01-01T18:15:17;4.33;;;3.13;;
19179;SDS011;9722;48.754;8.868;2023-01-01T18:18:38;3.60;;;3.13;;
19179;SDS011;9722;48.754;8.868;2023-01-01T18:21:59;2.40;;;1.63;;
19179;SDS011;9722;48.754;8.868;2023-01-01T18:25:19;3.10;;;1.87;;
19179;SDS011;9722;48.754;8.868;2023-01-01T18:28:40;3.77;;;2.67;;
19179;SDS011;9722;48.754;8.868;2023-01-01T18:32:00;4.10;;;2.60;;
19179;SDS011;9722;48.754;8.868;2023-01-01T18:35:21;4.53;;;2.70;;
19179;SDS011;9722;48.754;8.868;2023-01-01T18:38:43;2.10;;;2.00;;
19179;SDS011;9722;48.754;8.868;2023-01-01T18:45:44;2.07;;;1.77;;
19179;SDS011;9722;48.754;8.868;2023-01-01T18:49:06;3.30;;;2.33;;
19179;SDS011;9722;48.754;8.868;2023-01-01T18:52:30;1.57;;;1.47;;
19179;SDS011;9722;48.754;8.868;2023-01-01T18:55:58;2.43;;;1.50;;
19179;SDS011;9722;48.754;8.868;2023-01-01T18:59:30;4.83;;;1.57;;
19179;SDS011;9722;48.754;8.868;2023-01-01T19:02:55;2.43;;;1.30;;
19179;SDS011;9722;48.754;8.868;2023-01-01T19:06:31;2.90;;;1.23;;
19179;SDS011;9722;48.754;8.868;2023-01-01T19:09:52;2.87;;;1.70;;
19179;SDS011;9722;48.754;8.868;2023-01-01T19:13:15;4.83;;;1.93;;
19179;SDS011;9722;48.754;8.868;2023-01-01T19:16:36;3.90;;;2.10;;
19179;SDS011;9722;48.754;8.868;2023-01-01T19:19:56;2.47;;;2.03;;
19179;SDS011;9722;48.754;8.868;2023-01-01T19:23:18;3.60;;;2.23;;
19179;SDS011;9722;48.754;8.868;2023-01-01T19:26:42;2.27;;;1.70;;
19179;SDS011;9722;48.754;8.868;2023-01-01T19:30:17;3.13;;;2.83;;
19179;SDS011;9722;48.754;8.868;2023-01-01T19:33:41;3.10;;;2.27;;
19179;SDS011;9722;48.754;8.868;2023-01-01T19:37:02;3.40;;;2.30;;
19179;SDS011;9722;48.754;8.868;2023-01-01T19:40:24;2.70;;;1.90;;
19179;SDS011;9722;48.754;8.868;2023-01-01T19:43:44;4.20;;;3.30;;
19179;SDS011;9722;48.754;8.868;2023-01-01T19:47:05;3.43;;;2.40;;
19179;SDS011;9722;48.754;8.868;2023-01-01T19:50:27;2.30;;;1.97;;
19179;SDS011;9722;48.754;8.868;2023-01-01T19:53:48;2.70;;;1.60;;
19179;SDS011;9722;48.754;8.868;2023-01-01T19:57:10;2.10;;;1.70;;
19179;SDS011;9722;48.754;8.868;2023-01-01T20:00:31;3.23;;;1.37;;
19179;SDS011;9722;48.754;8.868;2023-01-01T20:03:51;3.30;;;1.53;;
19179;SDS011;9722;48.754;8.868;2023-01-01T20:07:12;2.33;;;2.13;;
19179;SDS011;9722;48.754;8.868;2023-01-01T20:10:33;2.07;;;1.30;;
19179;SDS011;9722;48.754;8.868;2023-01-01T20:13:53;2.47;;;1.47;;
19179;SDS011;9722;48.754;8.868;2023-01-01T20:17:14;1.57;;;1.33;;
19179;SDS011;9722;48.754;8.868;2023-01-01T20:20:36;2.17;;;1.20;;
19179;SDS011;9722;48.754;8.868;2023-01-01T20:24:17;4.40;;;1.50;;
19179;SDS011;9722;48.754;8.868;2023-01-01T20:27:37;0.70;;;0.70;;
19179;SDS011;9722;48.754;8.868;2023-01-01T20:31:18;2.23;;;1.47;;
19179;SDS011;9722;48.754;8.868;2023-01-01T20:34:39;1.20;;;1.10;;
19179;SDS011;9722;48.754;8.868;2023-01-01T20:37:59;2.70;;;1.63;;
19179;SDS011;9722;48.754;8.868;2023-01-01T20:41:20;2.90;;;1.27;;
19179;SDS011;9722;48.754;8.868;2023-01-01T20:44:43;3.77;;;1.53;;
19179;SDS011;9722;48.754;8.868;2023-01-01T20:48:04;2.13;;;1.30;;
19179;SDS011;9722;48.754;8.868;2023-01-01T20:51:25;2.07;;;1.80;;
19179;SDS011;9722;48.754;8.868;2023-01-01T20:54:46;1.77;;;1.60;;
19179;SDS011;9722;48.754;8.868;2023-01-01T20:58:06;1.60;;;1.50;;
19179;SDS011;9722;48.754;8.868;2023-01-01T21:01:27;2.60;;;1.73;;
19179;SDS011;9722;48.754;8.868;2023-01-01T21:04:48;2.37;;;1.40;;
19179;SDS011;9722;48.754;8.868;2023-01-01T21:08:08;3.40;;;1.87;;
19179;SDS011;9722;48.754;8.868;2023-01-01T21:11:29;2.50;;;1.70;;
19179;SDS011;9722;48.754;8.868;2023-01-01T21:14:52;3.90;;;1.83;;
19179;SDS011;9722;48.754;8.868;2023-01-01T21:18:15;2.10;;;1.77;;
19179;SDS011;9722;48.754;8.868;2023-01-01T21:21:39;2.93;;;2.03;;
19179;SDS011;9722;48.754;8.868;2023-01-01T21:25:12;2.37;;;1.77;;
19179;SDS011;9722;48.754;8.868;2023-01-01T21:28:41;3.47;;;1.53;;
19179;SDS011;9722;48.754;8.868;2023-01-01T21:32:11;2.43;;;2.00;;
19179;SDS011;9722;48.754;8.868;2023-01-01T21:35:42;1.77;;;1.33;;
19179;SDS011;9722;48.754;8.868;2023-01-01T21:39:03;2.67;;;1.50;;
19179;SDS011;9722;48.754;8.868;2023-01-01T21:42:27;2.30;;;1.90;;
19179;SDS011;9722;48.754;8.868;2023-01-01T21:45:47;2.10;;;1.40;;
19179;SDS011;9722;48.754;8.868;2023-01-01T21:49:13;3.03;;;1.40;;
19179;SDS011;9722;48.754;8.868;2023-01-01T21:52:58;2.33;;;1.57;;
19179;SDS011;9722;48.754;8.868;2023-01-01T21:56:27;1.87;;;1.37;;
19179;SDS011;9722;48.754;8.868;2023-01-01T21:59:54;1.73;;;1.53;;
19179;SDS011;9722;48.754;8.868;2023-01-01T22:03:15;1.27;;;1.17;;
19179;SDS011;9722;48.754;8.868;2023-01-01T22:06:37;4.20;;;1.30;;
19179;SDS011;9722;48.754;8.868;2023-01-01T22:10:13;2.80;;;1.47;;
19179;SDS011;9722;48.754;8.868;2023-01-01T22:13:37;3.30;;;1.50;;
19179;SDS011;9722;48.754;8.868;2023-01-01T22:16:58;2.53;;;1.30;;
19179;SDS011;9722;48.754;8.868;2023-01-01T22:20:21;1.73;;;1.27;;